createdAt,value
2018-09-08T00:01:31.670Z,7.50
2018-09-08T00:03:59.921Z,9.25
2018-09-08T00:06:33.243Z,8.00
2018-09-08T00:09:01.766Z,9.00
2018-09-08T00:11:30.040Z,9.00
2018-09-08T00:13:58.292Z,10.00
2018-09-08T00:16:31.792Z,10.00
2018-09-08T00:19:05.311Z,8.00
2018-09-08T00:21:39.880Z,8.00
2018-09-08T00:24:13.422Z,8.50
2018-09-08T00:26:40.891Z,9.00
2018-09-08T00:29:15.683Z,10.25
2018-09-08T00:31:44.846Z,8.75
2018-09-08T00:34:13.087Z,8.75
2018-09-08T00:36:41.375Z,9.00
2018-09-08T00:39:10.439Z,9.25
2018-09-08T00:41:38.757Z,13.00
2018-09-08T00:44:07.179Z,13.75
2018-09-08T00:46:35.458Z,9.75
2018-09-08T00:49:03.743Z,10.00
2018-09-08T00:51:32.014Z,10.25
2018-09-08T00:54:00.622Z,9.50
2018-09-08T00:56:28.948Z,11.00
2018-09-08T00:59:03.776Z,10.00
2018-09-08T01:01:33.016Z,10.25
2018-09-08T01:04:01.305Z,9.75
2018-09-08T01:06:29.560Z,9.50
2018-09-08T01:08:57.847Z,13.00
2018-09-08T01:11:26.166Z,8.25
2018-09-08T01:13:54.462Z,12.50
2018-09-08T01:16:22.837Z,9.75
2018-09-08T01:18:51.103Z,10.75
2018-09-08T01:21:19.359Z,9.25
2018-09-08T01:23:51.115Z,11.00
2018-09-08T01:26:19.897Z,8.00
2018-09-08T01:28:48.485Z,9.50
2018-09-08T01:31:16.723Z,8.50
2018-09-08T01:33:45.003Z,9.75
2018-09-08T01:36:13.292Z,11.00
2018-09-08T01:38:41.547Z,8.00
2018-09-08T01:41:09.852Z,10.00
2018-09-08T01:43:38.165Z,10.50
2018-09-08T01:46:06.840Z,11.25
2018-09-08T01:48:35.210Z,9.75
2018-09-08T01:51:03.514Z,11.00
2018-09-08T01:53:31.818Z,12.25
2018-09-08T01:56:00.383Z,9.00
2018-09-08T01:58:28.640Z,13.50
2018-09-08T02:00:56.917Z,14.50
2018-09-08T02:03:25.243Z,13.50
2018-09-08T02:05:53.555Z,13.50
2018-09-08T02:08:21.808Z,15.25
2018-09-08T02:10:50.103Z,13.75
2018-09-08T02:13:19.200Z,16.50
2018-09-08T02:15:47.432Z,14.50
2018-09-08T02:18:15.719Z,13.50
2018-09-08T02:20:43.954Z,15.25
2018-09-08T02:23:12.247Z,14.75
2018-09-08T02:25:40.534Z,14.75
2018-09-08T02:28:08.831Z,13.25
2018-09-08T02:30:37.096Z,13.25
2018-09-08T02:33:05.330Z,13.25
2018-09-08T02:35:33.662Z,15.00
2018-09-08T02:38:01.943Z,15.25
2018-09-08T02:40:30.222Z,16.25
2018-09-08T02:42:58.551Z,15.00
2018-09-08T02:45:27.898Z,18.00
2018-09-08T02:47:56.167Z,15.50
2018-09-08T02:50:34.453Z,18.50
2018-09-08T02:53:02.407Z,15.75
2018-09-08T02:55:30.861Z,15.75
2018-09-08T02:57:58.582Z,16.00
2018-09-08T03:00:26.405Z,17.75
2018-09-08T03:02:53.774Z,15.00
2018-09-08T03:05:21.166Z,18.00
2018-09-08T03:07:48.615Z,17.75
2018-09-08T03:10:16.166Z,16.75
2018-09-08T03:12:43.363Z,16.25
2018-09-08T03:15:10.589Z,16.75
2018-09-08T03:17:37.823Z,18.00
2018-09-08T03:20:05.003Z,21.75
2018-09-08T03:22:32.546Z,16.50
2018-09-08T03:24:59.833Z,18.50
2018-09-08T03:27:27.058Z,18.50
2018-09-08T03:29:54.395Z,19.75
2018-09-08T03:32:21.615Z,22.75
2018-09-08T03:34:48.834Z,20.50
2018-09-08T03:37:16.042Z,16.25
2018-09-08T03:39:43.270Z,17.50
2018-09-08T03:42:10.476Z,17.25
2018-09-08T03:44:37.711Z,20.50
2018-09-08T03:47:04.922Z,16.75
2018-09-08T03:49:32.146Z,22.75
2018-09-08T03:51:59.390Z,21.75
2018-09-08T03:54:26.598Z,22.50
2018-09-08T03:56:53.797Z,20.25
2018-09-08T03:59:21.027Z,22.25
2018-09-08T04:01:48.224Z,18.75
2018-09-08T04:04:16.498Z,21.50
2018-09-08T04:06:44.766Z,23.50
2018-09-08T04:09:13.039Z,19.25
2018-09-08T04:11:41.347Z,21.50
2018-09-08T04:14:10.072Z,25.00
2018-09-08T04:16:38.367Z,21.00
2018-09-08T04:19:07.128Z,19.50
2018-09-08T04:21:35.443Z,20.75
2018-09-08T04:24:03.774Z,21.75
2018-09-08T04:26:31.972Z,20.50
2018-09-08T04:29:00.249Z,18.75
2018-09-08T04:31:28.567Z,17.75
2018-09-08T04:33:56.835Z,22.00
2018-09-08T04:36:25.113Z,17.50
2018-09-08T04:38:53.345Z,22.00
2018-09-08T04:41:21.615Z,19.25
2018-09-08T04:43:49.951Z,19.50
2018-09-08T04:46:18.230Z,19.25
2018-09-08T04:48:46.594Z,25.50
2018-09-08T04:51:14.926Z,24.25
2018-09-08T04:53:43.172Z,23.00
2018-09-08T04:56:11.505Z,20.00
2018-09-08T04:58:39.774Z,21.75
2018-09-08T05:01:08.077Z,24.75
2018-09-08T05:03:36.350Z,29.25
2018-09-08T05:06:04.659Z,22.25
2018-09-08T05:08:32.920Z,21.75
2018-09-08T05:11:01.227Z,24.25
2018-09-08T05:13:29.455Z,28.00
2018-09-08T05:15:57.771Z,24.25
2018-09-08T05:18:26.053Z,25.50
2018-09-08T05:20:54.360Z,23.75
2018-09-08T05:23:22.656Z,22.25
2018-09-08T05:25:50.901Z,25.50
2018-09-08T05:28:19.179Z,20.00
2018-09-08T05:30:47.415Z,23.00
2018-09-08T05:33:15.731Z,19.25
2018-09-08T05:35:43.974Z,21.75
2018-09-08T05:38:12.251Z,23.75
2018-09-08T05:40:40.576Z,22.00
2018-09-08T05:43:08.891Z,20.75
2018-09-08T05:45:37.167Z,22.00
2018-09-08T05:48:05.387Z,24.25
2018-09-08T05:50:33.706Z,25.25
2018-09-08T05:53:01.992Z,23.00
2018-09-08T05:55:30.610Z,22.00
2018-09-08T05:57:58.931Z,25.00
2018-09-08T06:00:27.232Z,23.00
2018-09-08T06:02:55.549Z,20.75
2018-09-08T06:05:23.838Z,25.50
2018-09-08T06:07:52.152Z,30.25
2018-09-08T06:10:20.540Z,25.00
2018-09-08T06:12:48.804Z,23.00
2018-09-08T06:15:17.951Z,30.00
2018-09-08T06:17:46.243Z,24.50
2018-09-08T06:20:14.473Z,21.25
2018-09-08T06:22:42.804Z,22.50
2018-09-08T06:25:11.101Z,27.25
2018-09-08T06:27:40.128Z,21.75
2018-09-08T06:30:08.400Z,24.50
2018-09-08T06:32:36.659Z,26.75
2018-09-08T06:35:04.963Z,21.25
2018-09-08T06:37:33.207Z,22.00
2018-09-08T06:40:01.494Z,25.75
2018-09-08T06:42:29.751Z,28.50
2018-09-08T06:44:58.115Z,28.50
2018-09-08T06:47:26.324Z,25.75
2018-09-08T06:49:54.600Z,29.00
2018-09-08T06:52:22.911Z,24.50
2018-09-08T06:54:51.198Z,26.00
2018-09-08T06:57:19.482Z,31.00
2018-09-08T06:59:47.728Z,26.00
2018-09-08T07:02:15.953Z,31.75
2018-09-08T07:04:44.282Z,30.50
2018-09-08T07:07:13.414Z,22.00
2018-09-08T07:09:42.907Z,27.75
2018-09-08T07:12:11.324Z,25.50
2018-09-08T07:14:39.684Z,25.50
2018-09-08T07:17:07.985Z,24.00
2018-09-08T07:19:36.259Z,22.75
2018-09-08T07:22:04.816Z,26.50
2018-09-08T07:24:33.072Z,24.50
2018-09-08T07:27:01.350Z,22.75
2018-09-08T07:29:29.631Z,30.00
2018-09-08T07:31:57.919Z,25.50
2018-09-08T07:34:26.202Z,26.25
2018-09-08T07:36:54.483Z,20.25
2018-09-08T07:39:22.786Z,23.25
2018-09-08T07:41:51.032Z,23.00
2018-09-08T07:44:19.335Z,22.00
2018-09-08T07:46:47.566Z,24.25
2018-09-08T07:49:16.083Z,23.00
2018-09-08T07:51:44.376Z,26.75
2018-09-08T07:54:13.551Z,21.75
2018-09-08T07:56:41.850Z,22.50
2018-09-08T07:59:10.195Z,23.00
2018-09-08T08:01:38.476Z,24.50
2018-09-08T08:04:06.776Z,18.50
2018-09-08T08:06:35.087Z,23.75
2018-09-08T08:09:03.492Z,22.00
2018-09-08T08:11:31.800Z,21.00
2018-09-08T08:14:00.109Z,21.50
2018-09-08T08:16:28.383Z,18.50
2018-09-08T08:18:56.733Z,19.50
2018-09-08T08:21:25.025Z,25.25
2018-09-08T08:23:53.289Z,21.75
2018-09-08T08:26:21.635Z,22.50
2018-09-08T08:28:51.261Z,23.75
2018-09-08T08:31:19.553Z,19.75
2018-09-08T08:33:47.848Z,19.75
2018-09-08T08:36:16.128Z,17.75
2018-09-08T08:38:44.420Z,21.50
2018-09-08T08:41:12.684Z,23.00
2018-09-08T08:43:41.101Z,20.00
2018-09-08T08:46:10.331Z,16.50
2018-09-08T08:48:38.628Z,18.25
2018-09-08T08:51:18.082Z,20.00
2018-09-08T08:53:57.644Z,18.00
2018-09-08T08:56:26.735Z,19.75
2018-09-08T08:58:55.015Z,18.75
2018-09-08T09:01:23.291Z,19.25
2018-09-08T09:03:51.575Z,17.25
2018-09-08T09:06:22.815Z,21.25
2018-09-08T09:08:51.096Z,18.25
2018-09-08T09:11:19.425Z,17.75
2018-09-08T09:13:47.715Z,17.25
2018-09-08T09:16:16.056Z,19.00
2018-09-08T09:18:55.998Z,17.75
2018-09-08T09:21:35.042Z,17.75
2018-09-08T09:24:25.492Z,21.00
2018-09-08T09:26:53.280Z,20.00
2018-09-08T09:29:23.505Z,19.00
2018-09-08T09:31:51.839Z,17.75
2018-09-08T09:34:24.329Z,16.00
2018-09-08T09:36:52.674Z,20.75
2018-09-08T09:39:21.039Z,16.50
2018-09-08T09:41:49.340Z,15.00
2018-09-08T09:44:17.686Z,14.50
2018-09-08T09:46:46.035Z,17.50
2018-09-08T09:49:14.389Z,15.75
2018-09-08T09:51:43.888Z,17.50
2018-09-08T09:54:12.221Z,16.25
2018-09-08T09:56:40.559Z,18.00
2018-09-08T09:59:08.992Z,16.75
2018-09-08T10:01:43.272Z,15.00
2018-09-08T10:04:12.480Z,16.50
2018-09-08T10:06:40.800Z,15.50
2018-09-08T10:09:10.585Z,17.75
2018-09-08T10:11:38.946Z,18.50
2018-09-08T10:14:07.343Z,16.75
2018-09-08T10:16:35.684Z,17.00
2018-09-08T10:19:08.072Z,15.00
2018-09-08T10:21:36.408Z,14.00
2018-09-08T10:24:05.556Z,15.25
2018-09-08T10:26:33.799Z,14.00
2018-09-08T10:29:02.183Z,14.25
2018-09-08T10:31:30.544Z,12.50
2018-09-08T10:33:58.908Z,13.25
2018-09-08T10:36:27.416Z,14.50
2018-09-08T10:38:55.768Z,15.00
2018-09-08T10:41:24.618Z,14.00
2018-09-08T10:43:52.928Z,12.25
2018-09-08T10:46:21.242Z,12.25
2018-09-08T10:48:49.824Z,15.75
2018-09-08T10:51:56.667Z,13.00
2018-09-08T10:54:24.986Z,16.00
2018-09-08T10:56:53.264Z,14.25
2018-09-08T10:59:21.561Z,16.00
2018-09-08T11:01:49.995Z,14.00
2018-09-08T11:04:18.116Z,16.50
2018-09-08T11:06:46.426Z,15.00
2018-09-08T11:09:14.723Z,13.50
2018-09-08T11:11:44.346Z,15.75
2018-09-08T11:14:12.668Z,14.75
2018-09-08T11:16:40.935Z,13.00
2018-09-08T11:19:09.275Z,15.00
2018-09-08T11:21:39.630Z,12.75
2018-09-08T11:24:08.030Z,13.00
2018-09-08T11:26:39.864Z,13.25
2018-09-08T11:29:08.170Z,13.00
2018-09-08T11:31:36.511Z,13.75
2018-09-08T11:34:04.791Z,12.25
2018-09-08T11:36:33.124Z,10.25
2018-09-08T11:39:02.078Z,12.75
2018-09-08T11:41:30.527Z,14.00
2018-09-08T11:43:59.735Z,12.25
2018-09-08T11:46:27.995Z,10.00
2018-09-08T11:48:56.289Z,14.50
2018-09-08T11:51:24.572Z,13.75
2018-09-08T11:53:52.891Z,11.75
2018-09-08T11:56:21.502Z,13.00
2018-09-08T11:58:49.759Z,11.75
2018-09-08T12:01:18.048Z,13.00
2018-09-08T12:03:49.438Z,13.75
2018-09-08T12:06:17.762Z,12.25
2018-09-08T12:08:46.038Z,16.00
2018-09-08T12:11:14.323Z,17.00
2018-09-08T12:13:42.630Z,13.75
2018-09-08T12:16:10.927Z,14.00
2018-09-08T12:18:40.335Z,14.75
2018-09-08T12:21:08.622Z,15.25
2018-09-08T12:23:36.921Z,15.50
2018-09-08T12:26:05.237Z,14.00
2018-09-08T12:28:33.527Z,13.75
2018-09-08T12:31:01.913Z,16.50
2018-09-08T12:33:30.139Z,14.50
2018-09-08T12:35:58.459Z,13.75
2018-09-08T12:38:26.731Z,14.25
2018-09-08T12:40:56.075Z,13.50
2018-09-08T12:43:24.344Z,13.25
2018-09-08T12:45:52.707Z,18.00
2018-09-08T12:48:20.952Z,17.00
2018-09-08T12:50:49.278Z,17.00
2018-09-08T12:53:17.617Z,17.00
2018-09-08T12:55:45.859Z,14.00
2018-09-08T12:58:14.212Z,13.75
2018-09-08T13:00:42.512Z,13.00
2018-09-08T13:03:11.154Z,16.75
2018-09-08T13:05:39.475Z,16.25
2018-09-08T13:08:07.774Z,16.25
2018-09-08T13:10:36.139Z,16.00
2018-09-08T13:13:04.438Z,16.50
2018-09-08T13:15:32.754Z,15.25
2018-09-08T13:18:01.053Z,16.50
2018-09-08T13:20:29.352Z,13.00
2018-09-08T13:22:59.488Z,16.00
2018-09-08T13:25:27.715Z,14.75
2018-09-08T13:27:57.022Z,9.50
2018-09-08T13:30:25.297Z,9.00
2018-09-08T13:32:53.612Z,10.25
2018-09-08T13:35:21.888Z,10.75
2018-09-08T13:37:50.176Z,9.50
2018-09-08T13:40:19.018Z,9.00
2018-09-08T13:42:47.334Z,8.75
2018-09-08T13:45:15.647Z,8.00
2018-09-08T13:47:43.960Z,8.00
2018-09-08T13:50:13.147Z,6.75
2018-09-08T13:52:41.476Z,8.25
2018-09-08T13:55:09.728Z,6.50
2018-09-08T13:57:38.023Z,7.00
2018-09-08T14:00:07.332Z,8.00
2018-09-08T14:02:35.703Z,8.00
2018-09-08T14:05:04.072Z,5.00
2018-09-08T14:07:32.355Z,6.00
2018-09-08T14:10:00.643Z,5.00
2018-09-08T14:12:28.927Z,5.25
2018-09-08T14:14:57.200Z,4.00
2018-09-08T14:17:25.498Z,2.00
2018-09-08T14:19:53.753Z,4.00
2018-09-08T14:22:22.032Z,2.00
2018-09-08T14:24:50.309Z,2.00
2018-09-08T14:27:18.608Z,4.50
2018-09-08T14:29:46.838Z,4.25
2018-09-08T14:32:15.157Z,5.00
2018-09-08T14:34:43.455Z,3.50
2018-09-08T14:37:11.731Z,2.00
2018-09-08T14:39:40.023Z,2.00
2018-09-08T14:42:08.316Z,4.25
2018-09-08T14:44:36.605Z,1.50
2018-09-08T14:47:04.916Z,3.00
2018-09-08T14:49:33.210Z,5.25
2018-09-08T14:52:01.495Z,4.00
2018-09-08T14:54:29.771Z,4.75
2018-09-08T14:56:58.074Z,3.50
2018-09-08T14:59:26.436Z,3.50
2018-09-08T15:01:54.734Z,5.00
2018-09-08T15:04:23.015Z,3.50
2018-09-08T15:06:51.321Z,4.00
2018-09-08T15:09:19.692Z,2.50
2018-09-08T15:11:47.958Z,2.00
2018-09-08T15:14:16.224Z,4.00
2018-09-08T15:16:44.552Z,5.00
2018-09-08T15:19:12.840Z,4.50
2018-09-08T15:21:41.135Z,4.00
2018-09-08T15:24:09.424Z,5.75
2018-09-08T15:26:37.755Z,7.50
2018-09-08T15:29:06.019Z,5.00
2018-09-08T15:31:34.328Z,4.25
2018-09-08T15:34:02.572Z,4.75
2018-09-08T15:36:30.875Z,4.00
2018-09-08T15:38:59.152Z,5.00
2018-09-08T15:41:27.465Z,4.50
2018-09-08T15:43:55.797Z,8.00
2018-09-08T15:46:24.081Z,10.25
2018-09-08T15:48:52.341Z,8.00
2018-09-08T15:51:20.662Z,10.50
2018-09-08T15:53:48.908Z,7.50
2018-09-08T15:56:17.220Z,7.25
2018-09-08T15:58:45.534Z,6.00
2018-09-08T16:01:14.764Z,7.25
2018-09-08T16:03:43.053Z,5.00
2018-09-08T16:06:11.353Z,5.00
2018-09-08T16:08:39.653Z,5.00
2018-09-08T16:11:08.592Z,4.00
2018-09-08T16:13:36.884Z,5.00
2018-09-08T16:16:05.139Z,5.25
2018-09-08T16:18:33.447Z,6.00
2018-09-08T16:21:01.739Z,5.00
2018-09-08T16:23:30.029Z,2.00
2018-09-08T16:25:58.292Z,8.00
2018-09-08T16:28:26.582Z,5.00
2018-09-08T16:30:54.900Z,5.00
2018-09-08T16:33:23.188Z,4.75
2018-09-08T16:35:51.499Z,5.00
2018-09-08T16:38:19.791Z,4.00
2018-09-08T16:40:48.057Z,5.00
2018-09-08T16:43:16.341Z,5.50
2018-09-08T16:45:45.628Z,4.25
2018-09-08T16:48:13.901Z,4.00
2018-09-08T16:50:42.179Z,2.00
2018-09-08T16:53:10.485Z,4.00
2018-09-08T16:55:38.766Z,3.50
2018-09-08T16:58:07.055Z,1.00
2018-09-08T17:00:35.442Z,4.00
2018-09-08T17:03:03.603Z,2.00
2018-09-08T17:05:32.006Z,2.00
2018-09-08T17:08:01.547Z,2.00
2018-09-08T17:10:29.828Z,4.00
2018-09-08T17:12:58.133Z,2.00
2018-09-08T17:15:26.472Z,1.50
2018-09-08T17:17:54.788Z,2.00
2018-09-08T17:20:23.095Z,4.00
2018-09-08T17:22:51.415Z,2.50
2018-09-08T17:25:19.727Z,4.00
2018-09-08T17:27:48.023Z,2.00
2018-09-08T17:30:16.325Z,2.00
2018-09-08T17:32:44.617Z,2.50
2018-09-08T17:35:12.910Z,4.00
2018-09-08T17:37:41.172Z,2.00
2018-09-08T17:40:09.486Z,2.00
2018-09-08T17:42:37.742Z,3.50
2018-09-08T17:45:06.114Z,3.00
2018-09-08T17:47:34.421Z,2.00
2018-09-08T17:50:02.728Z,3.50
2018-09-08T17:52:31.011Z,2.00
2018-09-08T17:54:59.299Z,4.00
2018-09-08T17:57:27.657Z,5.00
2018-09-08T17:59:55.886Z,5.50
2018-09-08T18:02:24.163Z,4.00
2018-09-08T18:04:52.536Z,3.00
2018-09-08T18:07:20.821Z,16.25
2018-09-08T18:09:49.117Z,21.00
2018-09-08T18:12:17.415Z,10.25
2018-09-08T18:14:45.709Z,4.00
2018-09-08T18:17:14.011Z,4.25
2018-09-08T18:19:43.196Z,11.25
2018-09-08T18:22:11.499Z,23.75
2018-09-08T18:24:39.886Z,31.75
2018-09-08T18:27:08.197Z,24.50
2018-09-08T18:29:36.527Z,25.75
2018-09-08T18:32:04.803Z,11.00
2018-09-08T18:34:33.114Z,11.75
2018-09-08T18:37:01.437Z,7.00
2018-09-08T18:39:29.709Z,10.25
2018-09-08T18:41:59.262Z,5.00
2018-09-08T18:44:27.548Z,5.50
2018-09-08T18:46:55.857Z,5.00
2018-09-08T18:49:24.163Z,1.50
2018-09-08T18:51:52.481Z,7.75
2018-09-08T18:54:20.777Z,7.25
2018-09-08T18:56:49.064Z,2.50
2018-09-08T18:59:17.356Z,5.00
2018-09-08T19:01:45.714Z,5.00
2018-09-08T19:04:13.965Z,6.50
2018-09-08T19:06:42.242Z,11.00
2018-09-08T19:09:10.543Z,10.75
2018-09-08T19:11:39.144Z,10.00
2018-09-08T19:14:11.561Z,7.25
2018-09-08T19:16:39.862Z,18.75
2018-09-08T19:19:08.167Z,16.75
2018-09-08T19:21:36.472Z,11.50
2018-09-08T19:24:10.065Z,11.00
2018-09-08T19:26:38.353Z,15.25
2018-09-08T19:29:12.146Z,24.25
2018-09-08T19:31:41.350Z,29.50
2018-09-08T19:34:09.607Z,26.75
2018-09-08T19:36:37.951Z,20.00
2018-09-08T19:39:08.138Z,16.25
2018-09-08T19:41:36.420Z,17.25
2018-09-08T19:44:04.767Z,18.50
2018-09-08T19:46:38.298Z,20.00
2018-09-08T19:49:06.594Z,16.00
2018-09-08T19:51:34.885Z,13.00
2018-09-08T19:54:03.207Z,13.00
2018-09-08T19:56:36.692Z,11.75
2018-09-08T19:59:05.031Z,14.75
2018-09-08T20:01:33.337Z,11.25
2018-09-08T20:04:01.653Z,15.00
2018-09-08T20:06:29.975Z,16.25
2018-09-08T20:08:58.259Z,15.00
2018-09-08T20:11:26.584Z,14.50
2018-09-08T20:13:54.873Z,12.50
2018-09-08T20:16:23.177Z,11.75
2018-09-08T20:18:51.482Z,7.00
2018-09-08T20:21:19.827Z,10.00
2018-09-08T20:23:48.160Z,22.50
2018-09-08T20:26:16.461Z,30.25
2018-09-08T20:28:44.826Z,17.75
2018-09-08T20:31:13.059Z,13.25
2018-09-08T20:33:41.373Z,13.00
2018-09-08T20:36:09.727Z,12.25
2018-09-08T20:38:38.045Z,12.25
2018-09-08T20:41:06.404Z,10.25
2018-09-08T20:43:36.128Z,9.00
2018-09-08T20:46:04.432Z,10.25
2018-09-08T20:48:32.764Z,10.00
2018-09-08T20:51:01.047Z,10.00
2018-09-08T20:53:29.360Z,9.00
2018-09-08T20:55:58.619Z,10.50
2018-09-08T20:58:26.930Z,9.00
2018-09-08T21:00:55.221Z,9.25
2018-09-08T21:03:23.528Z,9.25
2018-09-08T21:05:51.823Z,8.75
2018-09-08T21:08:25.040Z,11.00
2018-09-08T21:10:53.369Z,9.00
2018-09-08T21:13:22.365Z,7.50
2018-09-08T21:15:50.746Z,9.75
2018-09-08T21:18:19.240Z,8.50
2018-09-08T21:20:49.455Z,9.00
2018-09-08T21:23:17.787Z,9.50
2018-09-08T21:25:46.032Z,12.00
2018-09-08T21:28:14.306Z,11.50
2018-09-08T21:30:42.655Z,12.00
2018-09-08T21:33:10.951Z,12.25
2018-09-08T21:35:39.250Z,12.50
2018-09-08T21:38:07.531Z,12.00
2018-09-08T21:40:35.879Z,9.75
2018-09-08T21:43:04.164Z,12.00
2018-09-08T21:45:32.460Z,10.00
2018-09-08T21:48:00.794Z,13.00
2018-09-08T21:50:29.094Z,12.00
2018-09-08T21:52:57.403Z,14.25
2018-09-08T21:55:25.698Z,10.00
2018-09-08T21:57:53.998Z,10.00
2018-09-08T22:00:22.320Z,10.75
2018-09-08T22:02:50.614Z,16.00
2018-09-08T22:05:18.909Z,12.00
2018-09-08T22:07:47.190Z,12.00
2018-09-08T22:10:15.510Z,13.75
2018-09-08T22:12:43.800Z,12.00
2018-09-08T22:15:12.089Z,13.50
2018-09-08T22:17:40.379Z,17.00
2018-09-08T22:20:08.703Z,27.25
2018-09-08T22:22:37.795Z,27.75
2018-09-08T22:25:06.247Z,32.00
2018-09-08T22:27:34.607Z,18.25
2018-09-08T22:30:02.897Z,16.75
2018-09-08T22:32:31.168Z,17.25
2018-09-08T22:34:59.450Z,19.25
2018-09-08T22:37:27.738Z,15.50
2018-09-08T22:39:56.030Z,17.00
2018-09-08T22:42:24.323Z,15.00
2018-09-08T22:44:52.620Z,16.75
2018-09-08T22:47:20.902Z,17.00
2018-09-08T22:49:49.199Z,19.50
2018-09-08T22:52:17.522Z,19.00
2018-09-08T22:54:45.807Z,19.75
2018-09-08T22:57:14.096Z,21.75
2018-09-08T22:59:42.465Z,18.00
2018-09-08T23:02:10.843Z,20.50
2018-09-08T23:04:39.136Z,23.25
2018-09-08T23:07:07.442Z,24.75
2018-09-08T23:09:35.731Z,21.50
2018-09-08T23:12:04.014Z,23.00
2018-09-08T23:14:32.326Z,28.00
2018-09-08T23:17:00.624Z,24.75
2018-09-08T23:19:28.893Z,21.50
2018-09-08T23:21:57.204Z,22.75
2018-09-08T23:24:25.600Z,26.75
2018-09-08T23:26:53.937Z,25.00
2018-09-08T23:29:22.236Z,24.25
2018-09-08T23:31:50.532Z,29.00
2018-09-08T23:34:18.838Z,23.75
2018-09-08T23:36:47.140Z,24.25
2018-09-08T23:39:15.416Z,20.25
2018-09-08T23:41:43.711Z,29.50
2018-09-08T23:44:11.994Z,20.75
2018-09-08T23:46:40.311Z,26.75
2018-09-08T23:49:08.602Z,30.25
2018-09-08T23:51:36.897Z,26.75
2018-09-08T23:54:05.191Z,34.50
2018-09-08T23:56:33.479Z,27.25
2018-09-08T23:59:01.762Z,26.75
